Etusivu
METAR-TAF:

METAR-TAF

Lentoasemat :

Dušanben kansainvälinen lentoasema

Dušanbe, Tadžikistan

Leveyspiiri: 38-33N, Pituuspiiri: 068-47E, korkeus merenpinnasta: 803 m

Tämänhetkinen sää

Tämä raportti tehtiin 1 tunti ja 4 minuuttia sitten, kello 18.00 UTC
Tuuli 6 kn idästä
Lämpötila 28°C
Kosteus 35%
Ilmanpaine 1001 hPa
Näkyvyys: 9000 m

METAR: UTDD 211800Z 09003MPS 9000 NSC 28/11 Q1001 R09/D NOSIG RMK QFE684/0912

Aika: 00:04 (19:04 UTC)

Sääennuste

Tämä raportti tehtiin 1 tunti ja 4 minuuttia sitten, kello 18.00 UTC
Ennuste voimassa 21. päivästä klo 19 UTC - 22. päivään klo 07 UTC
Tuuli 4 kn eri suunnista
Näkyvyys: 6000 m
Muutamia pilviä 6600 ft:n korkeudessa
Hajanaisia pilviä 15000 ft:n korkeudessa
Ajoittain
21. päivästä klo 19 UTC - 22. päivään klo 07 UTC
Tuuli 10 kn idästä/koillisesta

TAF: UTDD 211800Z 2119/2207 VRB02MPS 6000 FEW066 SCT150 TEMPO 2119/2207 07005MPS

Säähavainnot ja -ennusteet yli 4000 lentoasemalta (METAR- ja TAF-raportit).

Käytössä olevat sääasemat on merkitty karttaan keltaisilla ja punaisilla pisteillä.

Aseta hiiri pisteen päälle nähdäksesi sääaseman nimen.

Klikkaa sitten nähdäksesi säähavainnot ja -ennusteet.

Kartan vaihtaminen: klikkaa mustalla rastilla varustettuja vihreitä pisteitä, niin voit zoomata sisään; viivalla varustettua vihreää pistettä, niin voit zoomata ulos tai vihreitä nuolia, niin pääset viereisille kartoille.


METAR-TAF: